sensor_id;sensor_type;location;lat;lon;timestamp;P1;durP1;ratioP1;P2;durP2;ratioP2
10540;SDS011;5318;50.844;4.272;2022-08-11T00:01:25;2.37;;;2.37;;
10540;SDS011;5318;50.844;4.272;2022-08-11T00:03:54;1.77;;;1.77;;
10540;SDS011;5318;50.844;4.272;2022-08-11T00:06:26;1.70;;;1.70;;
10540;SDS011;5318;50.844;4.272;2022-08-11T00:08:49;2.03;;;2.03;;
10540;SDS011;5318;50.844;4.272;2022-08-11T00:11:16;2.47;;;2.47;;
10540;SDS011;5318;50.844;4.272;2022-08-11T00:13:44;2.20;;;2.20;;
10540;SDS011;5318;50.844;4.272;2022-08-11T00:18:48;1.98;;;1.98;;
10540;SDS011;5318;50.844;4.272;2022-08-11T00:21:14;2.00;;;2.00;;
10540;SDS011;5318;50.844;4.272;2022-08-11T00:24:02;2.13;;;2.13;;
10540;SDS011;5318;50.844;4.272;2022-08-11T00:26:13;2.03;;;2.03;;
10540;SDS011;5318;50.844;4.272;2022-08-11T00:28:39;2.10;;;2.10;;
10540;SDS011;5318;50.844;4.272;2022-08-11T00:31:07;2.10;;;2.10;;
10540;SDS011;5318;50.844;4.272;2022-08-11T00:33:35;2.10;;;2.10;;
10540;SDS011;5318;50.844;4.272;2022-08-11T00:36:00;2.63;;;2.63;;
10540;SDS011;5318;50.844;4.272;2022-08-11T00:38:28;2.50;;;2.50;;
10540;SDS011;5318;50.844;4.272;2022-08-11T00:41:02;2.13;;;2.13;;
10540;SDS011;5318;50.844;4.272;2022-08-11T00:43:49;2.20;;;2.20;;
10540;SDS011;5318;50.844;4.272;2022-08-11T00:49:12;1.90;;;1.90;;
10540;SDS011;5318;50.844;4.272;2022-08-11T00:51:46;2.28;;;2.28;;
10540;SDS011;5318;50.844;4.272;2022-08-11T00:59:55;2.03;;;2.03;;
10540;SDS011;5318;50.844;4.272;2022-08-11T01:13:36;2.03;;;2.03;;
10540;SDS011;5318;50.844;4.272;2022-08-11T01:27:05;2.00;;;2.00;;
10540;SDS011;5318;50.844;4.272;2022-08-11T01:30:06;2.00;;;2.00;;
10540;SDS011;5318;50.844;4.272;2022-08-11T01:35:26;1.83;;;1.83;;
10540;SDS011;5318;50.844;4.272;2022-08-11T01:37:54;2.20;;;2.20;;
10540;SDS011;5318;50.844;4.272;2022-08-11T01:40:41;2.30;;;2.30;;
10540;SDS011;5318;50.844;4.272;2022-08-11T01:43:18;2.20;;;2.20;;
10540;SDS011;5318;50.844;4.272;2022-08-11T01:51:06;1.97;;;1.97;;
10540;SDS011;5318;50.844;4.272;2022-08-11T01:53:59;2.50;;;2.50;;
10540;SDS011;5318;50.844;4.272;2022-08-11T01:56:44;2.03;;;2.03;;
10540;SDS011;5318;50.844;4.272;2022-08-11T01:59:27;2.00;;;2.00;;
10540;SDS011;5318;50.844;4.272;2022-08-11T02:02:04;2.63;;;2.63;;
10540;SDS011;5318;50.844;4.272;2022-08-11T02:07:20;2.10;;;2.10;;
10540;SDS011;5318;50.844;4.272;2022-08-11T02:15:13;2.53;;;2.53;;
10540;SDS011;5318;50.844;4.272;2022-08-11T02:18:43;2.40;;;2.40;;
10540;SDS011;5318;50.844;4.272;2022-08-11T02:20:26;2.20;;;2.20;;
10540;SDS011;5318;50.844;4.272;2022-08-11T02:23:03;2.60;;;2.60;;
10540;SDS011;5318;50.844;4.272;2022-08-11T02:28:34;2.70;;;2.70;;
10540;SDS011;5318;50.844;4.272;2022-08-11T02:31:24;2.50;;;2.50;;
10540;SDS011;5318;50.844;4.272;2022-08-11T02:33:37;2.63;;;2.63;;
10540;SDS011;5318;50.844;4.272;2022-08-11T02:36:05;2.40;;;2.40;;
10540;SDS011;5318;50.844;4.272;2022-08-11T02:38:54;2.40;;;2.40;;
10540;SDS011;5318;50.844;4.272;2022-08-11T02:41:02;2.72;;;2.72;;
10540;SDS011;5318;50.844;4.272;2022-08-11T02:43:28;2.17;;;2.17;;
10540;SDS011;5318;50.844;4.272;2022-08-11T02:48:55;2.75;;;2.75;;
10540;SDS011;5318;50.844;4.272;2022-08-11T02:54:34;2.43;;;2.43;;
10540;SDS011;5318;50.844;4.272;2022-08-11T02:57:14;2.20;;;2.20;;
10540;SDS011;5318;50.844;4.272;2022-08-11T02:59:58;2.70;;;2.70;;
10540;SDS011;5318;50.844;4.272;2022-08-11T03:02:28;2.40;;;2.40;;
10540;SDS011;5318;50.844;4.272;2022-08-11T03:05:02;2.57;;;2.57;;
10540;SDS011;5318;50.844;4.272;2022-08-11T03:08:17;2.50;;;2.50;;
10540;SDS011;5318;50.844;4.272;2022-08-11T03:10:12;2.50;;;2.50;;
10540;SDS011;5318;50.844;4.272;2022-08-11T03:12:43;2.67;;;2.67;;
10540;SDS011;5318;50.844;4.272;2022-08-11T03:15:11;2.63;;;2.63;;
10540;SDS011;5318;50.844;4.272;2022-08-11T03:29:00;2.53;;;2.53;;
10540;SDS011;5318;50.844;4.272;2022-08-11T03:31:45;2.60;;;2.60;;
10540;SDS011;5318;50.844;4.272;2022-08-11T03:34:29;2.87;;;2.87;;
10540;SDS011;5318;50.844;4.272;2022-08-11T03:39:52;2.40;;;2.40;;
10540;SDS011;5318;50.844;4.272;2022-08-11T03:45:20;3.30;;;3.30;;
10540;SDS011;5318;50.844;4.272;2022-08-11T03:48:18;3.47;;;3.40;;
10540;SDS011;5318;50.844;4.272;2022-08-11T04:01:42;3.03;;;3.03;;
10540;SDS011;5318;50.844;4.272;2022-08-11T04:06:44;3.00;;;3.00;;
10540;SDS011;5318;50.844;4.272;2022-08-11T04:17:42;2.87;;;2.87;;
10540;SDS011;5318;50.844;4.272;2022-08-11T04:20:22;2.77;;;2.77;;
10540;SDS011;5318;50.844;4.272;2022-08-11T04:23:07;2.90;;;2.90;;
10540;SDS011;5318;50.844;4.272;2022-08-11T04:26:03;2.97;;;2.97;;
10540;SDS011;5318;50.844;4.272;2022-08-11T04:28:43;3.03;;;3.03;;
10540;SDS011;5318;50.844;4.272;2022-08-11T04:36:19;3.00;;;3.00;;
10540;SDS011;5318;50.844;4.272;2022-08-11T04:39:03;3.27;;;3.27;;
10540;SDS011;5318;50.844;4.272;2022-08-11T04:50:17;3.40;;;3.40;;
10540;SDS011;5318;50.844;4.272;2022-08-11T04:52:54;3.37;;;3.37;;
10540;SDS011;5318;50.844;4.272;2022-08-11T04:55:25;3.92;;;3.92;;
